createdAt,value
2019-05-14T00:00:41.638Z,1.73
2019-05-14T00:03:14.960Z,2.13
2019-05-14T00:05:46.440Z,1.50
2019-05-14T00:08:18.252Z,1.37
2019-05-14T00:10:51.808Z,1.63
2019-05-14T00:13:23.011Z,1.70
2019-05-14T00:15:54.893Z,1.40
2019-05-14T00:18:25.262Z,1.70
2019-05-14T00:20:57.387Z,2.17
2019-05-14T00:23:31.703Z,1.80
2019-05-14T00:26:03.113Z,1.83
2019-05-14T00:28:34.557Z,2.03
2019-05-14T00:31:06.419Z,1.60
2019-05-14T00:33:38.224Z,1.97
2019-05-14T00:36:11.260Z,1.40
2019-05-14T00:38:43.240Z,1.70
2019-05-14T00:41:15.591Z,1.60
2019-05-14T00:43:47.227Z,1.50
2019-05-14T00:46:21.053Z,2.20
2019-05-14T00:48:52.759Z,1.60
2019-05-14T00:51:24.613Z,1.63
2019-05-14T00:53:56.742Z,1.83
2019-05-14T00:56:28.444Z,1.67
2019-05-14T00:59:01.390Z,1.57
2019-05-14T02:01:58.032Z,2.33
2019-05-14T02:04:31.639Z,1.77
2019-05-14T02:07:02.516Z,1.57
2019-05-14T02:09:34.446Z,1.63
2019-05-14T02:12:05.259Z,1.47
2019-05-14T02:14:36.859Z,2.10
2019-05-14T02:17:08.399Z,1.67
2019-05-14T02:19:42.566Z,1.87
2019-05-14T02:22:15.037Z,2.10
2019-05-14T02:24:45.798Z,2.07
2019-05-14T02:27:16.577Z,1.80
2019-05-14T02:29:48.327Z,1.93
2019-05-14T02:32:19.622Z,1.90
2019-05-14T02:34:51.910Z,1.90
2019-05-14T02:37:23.234Z,1.63
2019-05-14T02:39:53.717Z,2.23
2019-05-14T02:42:28.669Z,2.00
2019-05-14T02:44:59.260Z,1.90
2019-05-14T02:47:30.295Z,2.03
2019-05-14T02:50:01.121Z,2.07
2019-05-14T02:52:31.684Z,1.30
2019-05-14T02:55:02.596Z,2.07
2019-05-14T02:57:33.716Z,1.93
2019-05-14T03:00:09.801Z,1.90
2019-05-14T03:02:40.272Z,2.00
2019-05-14T03:05:13.010Z,1.10
2019-05-14T03:07:43.812Z,1.67
2019-05-14T03:10:15.223Z,1.93
2019-05-14T03:12:49.217Z,1.87
2019-05-14T03:15:21.011Z,1.63
2019-05-14T03:17:52.341Z,1.93
2019-05-14T03:20:23.686Z,2.57
2019-05-14T03:23:02.972Z,1.97
2019-05-14T03:25:30.037Z,2.17
2019-05-14T03:28:01.417Z,1.83
2019-05-14T03:30:33.305Z,2.27
2019-05-14T03:33:04.472Z,2.80
2019-05-14T03:35:44.510Z,2.73
2019-05-14T03:38:09.439Z,2.47
2019-05-14T03:40:41.707Z,3.27
2019-05-14T03:43:12.888Z,2.40
2019-05-14T03:45:44.344Z,1.80
2019-05-14T03:48:19.074Z,2.13
2019-05-14T03:50:49.737Z,2.20
2019-05-14T03:53:20.649Z,1.93
2019-05-14T03:55:51.542Z,1.93
2019-05-14T03:58:23.976Z,2.10
2019-05-14T04:01:01.926Z,2.63
2019-05-14T04:03:33.152Z,2.03
2019-05-14T04:06:04.304Z,2.13
2019-05-14T04:08:39.243Z,2.10
2019-05-14T04:11:11.439Z,2.77
2019-05-14T04:13:44.023Z,2.50
2019-05-14T04:16:16.163Z,1.83
2019-05-14T04:18:50.489Z,1.77
2019-05-14T04:21:22.365Z,1.23
2019-05-14T04:23:55.422Z,2.03
2019-05-14T04:26:30.282Z,2.67
2019-05-14T04:29:01.772Z,1.73
2019-05-14T04:31:33.895Z,1.20
2019-05-14T04:34:04.641Z,2.00
2019-05-14T04:36:39.008Z,1.40
2019-05-14T04:39:09.526Z,1.50
2019-05-14T04:41:41.266Z,1.37
2019-05-14T04:44:12.379Z,1.50
2019-05-14T04:46:43.714Z,1.13
2019-05-14T04:49:14.707Z,1.47
2019-05-14T04:51:46.217Z,1.73
2019-05-14T04:54:19.410Z,1.60
2019-05-14T04:56:50.994Z,1.20
2019-05-14T04:59:23.303Z,1.97
2019-05-14T05:01:54.675Z,1.73
2019-05-14T05:04:29.620Z,1.77
2019-05-14T05:06:59.400Z,1.83
2019-05-14T05:09:31.753Z,2.13
2019-05-14T05:12:03.052Z,1.43
2019-05-14T05:14:34.158Z,1.50
2019-05-14T05:17:08.875Z,1.70
2019-05-14T05:19:44.317Z,1.50
2019-05-14T05:22:12.545Z,1.80
2019-05-14T05:24:43.671Z,1.70
2019-05-14T05:27:14.792Z,1.67
2019-05-14T05:29:48.387Z,2.00
2019-05-14T05:32:20.176Z,2.27
2019-05-14T05:34:51.006Z,1.80
2019-05-14T05:37:21.810Z,1.77
2019-05-14T05:39:52.849Z,1.67
2019-05-14T05:42:23.986Z,2.17
2019-05-14T05:44:55.751Z,1.83
2019-05-14T05:47:28.692Z,1.90
2019-05-14T05:50:00.400Z,1.87
2019-05-14T05:52:31.847Z,2.50
2019-05-14T05:55:03.345Z,2.20
2019-05-14T05:57:34.181Z,1.87
2019-05-14T06:00:06.490Z,1.73
2019-05-14T06:02:39.601Z,2.03
2019-05-14T06:05:23.357Z,1.70
2019-05-14T06:07:53.855Z,2.43
2019-05-14T06:10:25.337Z,2.67
2019-05-14T06:12:58.386Z,1.93
2019-05-14T06:15:43.872Z,1.90
2019-05-14T06:18:14.070Z,2.03
2019-05-14T06:20:34.325Z,1.93
2019-05-14T06:23:08.279Z,2.53
2019-05-14T06:25:39.988Z,2.30
2019-05-14T06:28:11.452Z,1.90
2019-05-14T06:30:43.265Z,2.23
2019-05-14T06:33:14.723Z,2.23
2019-05-14T06:35:48.383Z,1.70
2019-05-14T06:38:18.691Z,2.63
2019-05-14T06:40:49.683Z,1.73
2019-05-14T06:43:20.528Z,1.63
2019-05-14T06:45:51.408Z,1.70
2019-05-14T06:48:30.726Z,2.07
2019-05-14T06:50:53.147Z,2.33
2019-05-14T06:53:23.404Z,1.90
2019-05-14T06:55:53.835Z,2.97
2019-05-14T06:58:24.157Z,1.90
2019-05-14T07:00:54.292Z,1.90
2019-05-14T07:03:24.467Z,1.60
2019-05-14T07:05:55.337Z,2.00
2019-05-14T07:08:25.127Z,1.83
2019-05-14T07:10:55.978Z,1.70
2019-05-14T07:13:28.626Z,1.63
2019-05-14T07:15:58.763Z,1.70
2019-05-14T07:18:45.185Z,1.80
2019-05-14T07:21:00.817Z,1.83
2019-05-14T07:23:31.192Z,1.53
2019-05-14T07:26:01.514Z,1.77
2019-05-14T07:28:32.245Z,1.57
2019-05-14T07:31:02.424Z,2.63
2019-05-14T07:33:33.006Z,2.27
2019-05-14T07:36:02.735Z,2.37
2019-05-14T07:38:33.132Z,2.07
2019-05-14T07:41:03.327Z,1.53
2019-05-14T07:43:33.787Z,1.70
2019-05-14T07:46:03.766Z,1.83
2019-05-14T07:48:34.455Z,1.60
2019-05-14T07:51:04.915Z,1.40
2019-05-14T07:53:39.686Z,2.30
2019-05-14T07:56:09.469Z,1.43
2019-05-14T07:58:40.648Z,2.30
2019-05-14T08:01:10.954Z,1.17
2019-05-14T08:03:41.997Z,2.07
2019-05-14T08:06:12.807Z,1.57
2019-05-14T08:08:44.182Z,2.00
2019-05-14T08:11:15.646Z,1.37
2019-05-14T08:13:49.347Z,1.53
2019-05-14T08:16:19.905Z,2.07
2019-05-14T08:18:50.952Z,1.77
2019-05-14T08:21:23.312Z,1.90
2019-05-14T08:23:54.445Z,2.17
2019-05-14T08:26:26.306Z,1.70
2019-05-14T08:28:58.124Z,1.50
2019-05-14T08:31:29.555Z,2.50
2019-05-14T08:34:04.626Z,1.70
2019-05-14T08:36:34.419Z,1.57
2019-05-14T08:39:08.846Z,1.47
2019-05-14T08:41:40.167Z,2.00
2019-05-14T08:44:12.008Z,1.60
2019-05-14T08:46:45.138Z,2.03
2019-05-14T08:49:18.262Z,1.40
2019-05-14T08:51:49.473Z,1.33
2019-05-14T08:54:21.074Z,1.27
2019-05-14T08:56:53.279Z,1.37
2019-05-14T08:59:24.752Z,1.37
2019-05-14T09:02:05.508Z,1.40
2019-05-14T09:04:30.452Z,1.63
2019-05-14T09:07:03.200Z,1.50
2019-05-14T09:09:34.559Z,1.30
2019-05-14T09:12:12.074Z,1.63
2019-05-14T09:14:39.120Z,1.50
2019-05-14T09:17:14.543Z,1.33
2019-05-14T09:19:57.723Z,1.23
2019-05-14T09:22:18.526Z,1.43
2019-05-14T09:24:49.335Z,1.47
2019-05-14T09:27:19.860Z,1.73
2019-05-14T09:29:50.090Z,1.50
2019-05-14T09:32:20.968Z,1.87
2019-05-14T09:34:51.234Z,1.33
2019-05-14T09:37:22.423Z,1.13
2019-05-14T09:39:53.008Z,1.00
2019-05-14T09:42:22.872Z,1.37
2019-05-14T09:44:53.146Z,1.27
2019-05-14T09:47:24.321Z,1.10
2019-05-14T09:49:54.213Z,1.50
2019-05-14T09:52:25.006Z,1.23
2019-05-14T09:54:55.603Z,0.97
2019-05-14T09:57:28.047Z,1.07
2019-05-14T09:59:58.577Z,1.00
2019-05-14T10:02:29.123Z,1.47
2019-05-14T10:04:59.939Z,1.57
2019-05-14T10:07:30.295Z,1.27
2019-05-14T10:10:00.540Z,1.77
2019-05-14T10:12:31.235Z,1.70
2019-05-14T10:15:01.959Z,1.40
2019-05-14T10:17:33.307Z,1.53
2019-05-14T10:20:03.748Z,1.27
2019-05-14T10:22:34.437Z,1.13
2019-05-14T10:25:04.899Z,1.43
2019-05-14T10:27:35.841Z,1.43
2019-05-14T10:30:09.796Z,1.27
2019-05-14T10:32:41.274Z,1.30
2019-05-14T10:35:11.115Z,1.60
2019-05-14T10:37:41.647Z,1.37
2019-05-14T10:40:18.420Z,1.77
2019-05-14T10:42:49.515Z,1.40
2019-05-14T10:45:19.914Z,1.40
2019-05-14T10:47:50.972Z,0.80
2019-05-14T10:50:21.132Z,1.50
2019-05-14T10:52:52.006Z,1.30
2019-05-14T10:55:22.302Z,1.00
2019-05-14T10:57:54.386Z,0.87
2019-05-14T11:00:24.907Z,1.10
2019-05-14T11:02:55.168Z,1.40
2019-05-14T11:05:25.391Z,1.30
2019-05-14T11:07:55.268Z,1.30
2019-05-14T11:10:25.893Z,1.30
2019-05-14T11:12:55.746Z,1.00
2019-05-14T11:15:28.443Z,1.03
2019-05-14T11:17:58.575Z,1.10
2019-05-14T11:20:31.172Z,1.33
2019-05-14T11:23:01.219Z,1.43
2019-05-14T11:25:31.906Z,0.90
2019-05-14T11:28:01.869Z,0.60
2019-05-14T11:30:32.572Z,1.13
2019-05-14T11:33:03.423Z,0.73
2019-05-14T11:35:33.724Z,1.27
2019-05-14T11:38:03.908Z,0.90
2019-05-14T11:40:34.394Z,0.80
2019-05-14T11:43:04.648Z,1.17
2019-05-14T11:45:35.332Z,0.70
2019-05-14T11:48:05.237Z,0.87
2019-05-14T11:50:36.819Z,1.00
2019-05-14T11:53:08.509Z,1.30
2019-05-14T11:55:39.006Z,0.90
2019-05-14T11:58:09.217Z,0.97
2019-05-14T12:00:40.150Z,0.60
2019-05-14T12:03:10.781Z,0.80
2019-05-14T12:05:41.072Z,0.67
2019-05-14T12:08:11.940Z,0.70
2019-05-14T12:10:43.223Z,0.93
2019-05-14T12:13:14.933Z,0.83
2019-05-14T12:15:48.554Z,0.87
2019-05-14T12:18:20.061Z,1.00
2019-05-14T12:20:50.984Z,0.60
2019-05-14T12:23:22.783Z,1.10
2019-05-14T12:25:54.466Z,0.80
2019-05-14T12:28:25.753Z,0.93
2019-05-14T12:30:58.475Z,0.80
2019-05-14T12:33:31.439Z,1.20
2019-05-14T12:36:03.017Z,0.77
2019-05-14T12:38:34.056Z,0.77
2019-05-14T12:41:08.915Z,1.00
2019-05-14T12:43:40.193Z,1.10
2019-05-14T12:46:12.193Z,1.30
2019-05-14T12:48:43.173Z,1.00
2019-05-14T12:51:14.555Z,0.80
2019-05-14T12:53:48.585Z,0.90
2019-05-14T12:56:19.084Z,0.90
2019-05-14T12:58:51.799Z,0.60
2019-05-14T13:01:22.857Z,0.90
2019-05-14T13:03:55.153Z,0.93
2019-05-14T13:06:29.112Z,0.80
2019-05-14T13:08:59.751Z,0.63
2019-05-14T13:11:31.225Z,0.80
2019-05-14T13:14:02.808Z,0.60
2019-05-14T13:16:34.258Z,1.07
2019-05-14T13:19:18.988Z,0.60
2019-05-14T13:22:08.700Z,0.87
2019-05-14T13:24:24.901Z,1.27
2019-05-14T13:26:58.615Z,1.20
2019-05-14T13:29:29.458Z,1.10
2019-05-14T13:32:00.577Z,1.20
2019-05-14T13:34:32.189Z,0.90
2019-05-14T13:37:04.699Z,1.03
2019-05-14T13:39:39.590Z,0.80
2019-05-14T13:42:12.061Z,1.00
2019-05-14T13:44:42.947Z,0.70
2019-05-14T13:47:14.380Z,0.90
2019-05-14T13:49:48.475Z,0.50
2019-05-14T13:52:19.618Z,1.03
2019-05-14T13:54:51.106Z,0.60
2019-05-14T13:57:22.256Z,0.90
2019-05-14T13:59:53.228Z,1.20
2019-05-14T14:02:28.033Z,0.70
2019-05-14T14:04:58.942Z,0.70
2019-05-14T14:07:32.809Z,1.10
2019-05-14T14:10:04.586Z,0.77
2019-05-14T14:12:34.888Z,0.70
2019-05-14T14:15:08.827Z,1.00
2019-05-14T14:17:39.377Z,1.30
2019-05-14T14:20:12.793Z,1.00
2019-05-14T14:22:44.508Z,0.60
2019-05-14T14:25:17.743Z,1.00
2019-05-14T14:27:49.299Z,1.60
2019-05-14T14:30:20.778Z,0.90
2019-05-14T14:32:51.818Z,1.00
2019-05-14T14:35:24.553Z,0.77
2019-05-14T14:37:55.931Z,0.97
2019-05-14T14:40:29.913Z,1.07
2019-05-14T14:43:00.325Z,1.10
2019-05-14T14:45:31.449Z,1.03
2019-05-14T14:48:03.075Z,0.60
2019-05-14T14:50:34.229Z,0.67
2019-05-14T14:53:09.476Z,1.03
2019-05-14T14:55:41.446Z,1.23
2019-05-14T14:58:13.028Z,0.77
2019-05-14T15:00:44.384Z,0.93
2019-05-14T15:03:15.842Z,0.90
2019-05-14T15:05:49.796Z,0.80
2019-05-14T15:08:20.296Z,0.90
2019-05-14T15:10:51.801Z,0.90
2019-05-14T15:13:22.285Z,0.67
2019-05-14T15:15:53.266Z,0.80
2019-05-14T15:18:23.041Z,0.70
2019-05-14T15:20:53.254Z,0.70
2019-05-14T15:23:23.498Z,0.80
2019-05-14T15:25:53.827Z,0.67
2019-05-14T15:28:25.401Z,1.27
2019-05-14T15:30:55.962Z,0.83
2019-05-14T15:33:29.252Z,0.77
2019-05-14T15:35:58.918Z,0.90
2019-05-14T15:38:30.818Z,0.67
2019-05-14T15:41:01.454Z,0.67
2019-05-14T15:43:31.323Z,1.33
2019-05-14T15:46:01.956Z,1.00
2019-05-14T15:48:32.671Z,1.10
2019-05-14T15:51:02.901Z,0.80
2019-05-14T15:53:33.837Z,0.77
2019-05-14T15:56:04.439Z,0.83
2019-05-14T15:58:34.788Z,0.70
2019-05-14T16:01:04.923Z,0.80
2019-05-14T16:03:35.118Z,0.70
2019-05-14T16:06:08.746Z,0.73
2019-05-14T16:08:40.195Z,0.57
2019-05-14T16:11:11.441Z,0.90
2019-05-14T16:13:41.945Z,0.40
2019-05-14T16:16:12.169Z,0.80
2019-05-14T16:18:43.127Z,0.70
2019-05-14T16:21:13.314Z,0.80
2019-05-14T16:23:44.500Z,1.00
2019-05-14T16:26:15.146Z,0.87
2019-05-14T16:28:45.777Z,1.00
2019-05-14T16:31:18.423Z,0.90
2019-05-14T16:33:49.446Z,1.23
2019-05-14T16:36:21.250Z,1.00
2019-05-14T16:38:52.586Z,0.90
2019-05-14T16:41:23.087Z,0.80
2019-05-14T16:43:54.053Z,0.93
2019-05-14T16:46:24.595Z,0.90
2019-05-14T16:48:54.918Z,0.80
2019-05-14T16:51:25.979Z,0.63
2019-05-14T16:53:58.954Z,0.63
2019-05-14T16:56:29.873Z,0.90
2019-05-14T16:59:00.120Z,0.90
2019-05-14T17:01:33.403Z,0.97
2019-05-14T17:04:02.794Z,0.93
2019-05-14T17:06:34.866Z,1.00
2019-05-14T17:09:08.599Z,0.90
2019-05-14T17:11:39.114Z,1.00
2019-05-14T17:14:09.153Z,1.00
2019-05-14T17:16:39.435Z,0.70
2019-05-14T17:19:12.751Z,0.73
2019-05-14T17:21:44.277Z,0.77
2019-05-14T17:24:15.207Z,0.80
2019-05-14T17:26:48.890Z,0.80
2019-05-14T17:29:19.259Z,1.73
2019-05-14T17:31:49.503Z,1.47
2019-05-14T17:34:20.244Z,1.00
2019-05-14T17:36:51.210Z,0.97
2019-05-14T17:39:22.350Z,0.77
2019-05-14T17:41:52.640Z,0.80
2019-05-14T17:44:23.021Z,1.27
2019-05-14T17:46:53.272Z,1.00
2019-05-14T17:49:23.168Z,1.13
2019-05-14T17:51:53.717Z,0.70
2019-05-14T17:54:24.320Z,1.20
2019-05-14T17:56:54.942Z,1.07
2019-05-14T17:59:25.904Z,0.73
2019-05-14T18:01:58.194Z,0.80
2019-05-14T18:04:29.925Z,0.63
2019-05-14T18:07:00.242Z,1.37
2019-05-14T18:09:30.500Z,1.67
2019-05-14T18:12:00.779Z,1.10
2019-05-14T18:14:31.751Z,0.97
2019-05-14T18:17:02.478Z,1.07
2019-05-14T18:19:33.181Z,1.17
2019-05-14T18:22:03.064Z,0.97
2019-05-14T18:24:33.291Z,0.80
2019-05-14T18:27:03.466Z,1.13
2019-05-14T18:29:34.080Z,1.30
2019-05-14T18:32:04.363Z,1.10
2019-05-14T18:34:35.173Z,1.73
2019-05-14T18:37:13.479Z,1.50
2019-05-14T18:39:39.430Z,1.33
2019-05-14T18:42:09.805Z,1.30
2019-05-14T18:44:45.051Z,1.00
2019-05-14T18:47:16.985Z,0.90
2019-05-14T18:49:48.727Z,0.83
2019-05-14T18:52:19.328Z,1.00
2019-05-14T18:54:49.936Z,0.70
2019-05-14T18:57:20.551Z,0.90
2019-05-14T18:59:50.932Z,1.13
2019-05-14T19:02:20.856Z,0.90
2019-05-14T19:04:51.499Z,0.80
2019-05-14T19:07:23.156Z,0.97
2019-05-14T19:09:53.335Z,0.80
2019-05-14T19:12:23.221Z,0.70
2019-05-14T19:14:58.982Z,0.93
2019-05-14T19:17:28.906Z,1.00
2019-05-14T19:19:59.661Z,1.03
2019-05-14T19:22:33.328Z,1.13
2019-05-14T19:25:04.058Z,1.20
2019-05-14T19:27:34.632Z,1.20
2019-05-14T19:30:04.703Z,0.73
2019-05-14T19:32:36.215Z,0.77
2019-05-14T19:35:08.621Z,0.60
2019-05-14T19:37:39.497Z,0.60
2019-05-14T19:40:09.886Z,0.87
2019-05-14T19:42:40.535Z,0.60
2019-05-14T19:45:10.577Z,0.80
2019-05-14T19:47:40.512Z,1.03
2019-05-14T19:50:12.525Z,1.00
2019-05-14T19:52:43.155Z,1.10
2019-05-14T19:55:13.884Z,1.17
2019-05-14T19:57:44.143Z,1.00
2019-05-14T20:00:19.143Z,0.80
2019-05-14T20:02:49.437Z,0.90
2019-05-14T20:05:19.780Z,1.03
2019-05-14T20:07:50.097Z,0.77
2019-05-14T20:10:20.855Z,0.80
2019-05-14T20:12:51.488Z,1.00
2019-05-14T20:15:22.948Z,0.80
2019-05-14T20:17:53.533Z,0.53
2019-05-14T20:20:24.265Z,0.60
2019-05-14T20:22:55.682Z,0.77
2019-05-14T20:25:28.063Z,0.70
2019-05-14T20:27:58.874Z,0.63
2019-05-14T20:30:29.691Z,0.80
2019-05-14T20:33:00.108Z,0.97
2019-05-14T20:35:34.834Z,0.80
2019-05-14T20:38:03.130Z,1.23
2019-05-14T20:40:33.356Z,0.63
2019-05-14T20:43:04.091Z,0.90
2019-05-14T20:45:34.408Z,0.90
2019-05-14T20:48:04.620Z,0.80
2019-05-14T20:50:34.947Z,0.97
2019-05-14T20:53:05.482Z,1.50
2019-05-14T20:55:38.681Z,0.70
2019-05-14T20:58:32.239Z,1.20
2019-05-14T21:01:01.975Z,1.33
2019-05-14T21:03:32.496Z,0.90
2019-05-14T21:06:02.227Z,1.10
2019-05-14T21:08:33.308Z,1.37
2019-05-14T21:11:03.403Z,1.37
2019-05-14T21:13:33.162Z,1.17
2019-05-14T21:16:03.176Z,1.47
2019-05-14T21:18:35.270Z,1.00
2019-05-14T21:21:04.943Z,1.73
2019-05-14T21:23:35.006Z,1.00
2019-05-14T21:26:04.807Z,0.70
2019-05-14T21:28:35.595Z,1.03
2019-05-14T21:31:10.209Z,1.00
2019-05-14T21:33:39.048Z,0.70
2019-05-14T21:36:09.512Z,0.90
2019-05-14T21:38:50.059Z,1.47
2019-05-14T21:41:20.569Z,2.30
2019-05-14T21:43:50.648Z,1.10
2019-05-14T21:46:20.975Z,0.80
2019-05-14T21:48:51.099Z,0.90
2019-05-14T21:51:21.727Z,1.00
2019-05-14T21:53:51.824Z,1.00
2019-05-14T21:56:21.996Z,1.13
2019-05-14T21:58:52.594Z,1.70
2019-05-14T22:01:22.882Z,1.20
2019-05-14T22:03:53.079Z,0.87
2019-05-14T22:06:23.163Z,1.27
2019-05-14T22:08:53.286Z,1.00
2019-05-14T22:11:23.442Z,1.10
2019-05-14T22:13:53.231Z,0.97
2019-05-14T22:16:23.540Z,1.00
2019-05-14T22:18:55.288Z,1.00
2019-05-14T22:21:25.904Z,1.43
2019-05-14T22:23:58.747Z,1.37
2019-05-14T22:26:28.360Z,1.27
2019-05-14T22:28:59.256Z,1.33
2019-05-14T22:31:29.126Z,1.10
2019-05-14T22:33:58.862Z,1.33
2019-05-14T22:36:29.477Z,1.60
2019-05-14T22:38:59.685Z,1.00
2019-05-14T22:41:29.992Z,1.90
2019-05-14T22:44:00.447Z,1.30
2019-05-14T22:46:30.800Z,1.33
2019-05-14T22:49:00.878Z,1.40
2019-05-14T22:51:33.179Z,1.27
2019-05-14T22:54:03.004Z,1.67
2019-05-14T22:56:33.340Z,1.50
2019-05-14T22:59:03.135Z,1.57
2019-05-14T23:01:33.499Z,1.40
2019-05-14T23:04:03.995Z,1.30
2019-05-14T23:06:34.311Z,1.20
2019-05-14T23:09:05.462Z,1.40
2019-05-14T23:11:35.483Z,1.43
2019-05-14T23:14:05.759Z,1.90
2019-05-14T23:16:39.267Z,1.50
2019-05-14T23:19:08.011Z,1.30
2019-05-14T23:21:39.136Z,1.17
2019-05-14T23:24:09.755Z,1.67
2019-05-14T23:26:40.392Z,1.33
2019-05-14T23:29:10.427Z,1.60
2019-05-14T23:31:40.868Z,1.30
2019-05-14T23:34:11.476Z,1.53
2019-05-14T23:36:41.618Z,1.53
2019-05-14T23:39:11.431Z,1.40
2019-05-14T23:41:41.415Z,1.50
2019-05-14T23:44:12.080Z,1.50
2019-05-14T23:46:42.264Z,1.37
2019-05-14T23:49:12.230Z,1.60
2019-05-14T23:51:42.529Z,1.40
2019-05-14T23:54:12.596Z,1.20
2019-05-14T23:56:42.648Z,1.77
2019-05-14T23:59:12.987Z,2.30
